createdAt,value
2022-09-30T00:00:05.255Z,2.70
2022-09-30T00:01:10.609Z,2.60
2022-09-30T00:02:14.944Z,2.70
2022-09-30T00:03:16.614Z,2.70
2022-09-30T00:04:23.433Z,2.77
2022-09-30T00:05:24.897Z,2.80
2022-09-30T00:06:29.499Z,2.90
2022-09-30T00:07:30.931Z,3.00
2022-09-30T00:08:32.941Z,2.80
2022-09-30T00:09:34.347Z,2.70
2022-09-30T00:10:35.731Z,2.77
2022-09-30T00:11:39.280Z,3.23
2022-09-30T00:12:41.660Z,2.97
2022-09-30T00:13:44.569Z,2.67
2022-09-30T00:14:45.945Z,2.63
2022-09-30T00:15:47.372Z,3.03
2022-09-30T00:16:49.387Z,2.80
2022-09-30T00:17:51.021Z,2.83
2022-09-30T00:18:55.352Z,3.03
2022-09-30T00:19:56.786Z,3.10
2022-09-30T00:20:59.466Z,3.00
2022-09-30T00:22:00.853Z,2.80
2022-09-30T00:23:02.555Z,2.60
2022-09-30T00:24:05.129Z,2.87
2022-09-30T00:25:06.693Z,2.90
2022-09-30T00:26:12.213Z,2.60
2022-09-30T00:27:18.068Z,2.50
2022-09-30T00:28:19.434Z,2.67
2022-09-30T00:29:21.235Z,2.73
2022-09-30T00:30:23.118Z,2.70
2022-09-30T00:31:27.346Z,2.87
2022-09-30T00:32:29.217Z,2.73
2022-09-30T00:33:31.046Z,2.70
2022-09-30T00:34:32.427Z,2.73
2022-09-30T00:35:34.010Z,2.60
2022-09-30T00:36:50.186Z,2.73
2022-09-30T00:37:51.586Z,2.70
2022-09-30T00:38:52.979Z,2.70
2022-09-30T00:39:54.417Z,2.80
2022-09-30T00:40:56.366Z,2.80
2022-09-30T00:42:03.502Z,2.90
2022-09-30T00:43:15.563Z,3.00
2022-09-30T00:44:46.121Z,2.93
2022-09-30T00:45:59.386Z,3.10
2022-09-30T00:47:00.848Z,3.00
2022-09-30T00:48:08.720Z,2.80
2022-09-30T00:49:21.613Z,2.50
2022-09-30T00:50:37.105Z,2.80
2022-09-30T00:51:45.981Z,2.90
2022-09-30T00:53:03.836Z,2.50
2022-09-30T00:54:14.641Z,2.80
2022-09-30T00:55:33.853Z,2.80
2022-09-30T00:56:40.985Z,2.70
2022-09-30T00:57:42.695Z,2.80
2022-09-30T00:58:53.210Z,2.60
2022-09-30T00:59:54.907Z,3.10
2022-09-30T01:00:59.922Z,2.63
2022-09-30T01:02:02.054Z,2.53
2022-09-30T01:03:05.858Z,2.73
2022-09-30T01:04:20.725Z,2.87
2022-09-30T01:05:26.090Z,2.70
2022-09-30T01:06:28.161Z,2.60
2022-09-30T01:07:29.884Z,2.70
2022-09-30T01:08:33.853Z,2.70
2022-09-30T01:09:38.164Z,2.50
2022-09-30T01:10:39.933Z,2.40
2022-09-30T01:11:41.645Z,2.60
2022-09-30T01:12:43.406Z,2.60
2022-09-30T01:13:49.014Z,2.77
2022-09-30T01:14:53.454Z,2.50
2022-09-30T01:16:06.938Z,2.90
2022-09-30T01:17:13.267Z,2.80
2022-09-30T01:18:38.649Z,2.90
2022-09-30T01:20:06.968Z,2.60
2022-09-30T01:21:32.773Z,2.77
2022-09-30T01:22:55.904Z,2.60
2022-09-30T01:24:09.159Z,2.80
2022-09-30T01:25:26.140Z,2.60
2022-09-30T01:27:07.285Z,2.80
2022-09-30T01:28:23.547Z,2.90
2022-09-30T01:29:36.414Z,2.70
2022-09-30T01:30:43.541Z,2.93
2022-09-30T01:32:03.937Z,2.80
2022-09-30T01:33:25.185Z,2.90
2022-09-30T01:34:43.859Z,2.60
2022-09-30T01:36:18.073Z,2.53
2022-09-30T01:37:22.222Z,2.80
2022-09-30T01:38:28.422Z,2.60
2022-09-30T01:40:22.505Z,3.00
2022-09-30T01:41:38.054Z,2.83
2022-09-30T01:43:03.323Z,2.80
2022-09-30T01:44:16.035Z,2.90
2022-09-30T01:45:29.475Z,2.47
2022-09-30T01:46:50.224Z,2.77
2022-09-30T01:47:56.498Z,2.73
2022-09-30T01:49:27.170Z,2.57
2022-09-30T01:50:57.363Z,2.60
2022-09-30T01:52:11.070Z,2.70
2022-09-30T01:53:30.161Z,2.57
2022-09-30T01:54:49.672Z,2.63
2022-09-30T01:55:58.253Z,2.40
2022-09-30T01:57:08.454Z,2.70
2022-09-30T01:58:29.509Z,2.70
2022-09-30T01:59:54.468Z,2.60
2022-09-30T02:01:01.136Z,2.70
2022-09-30T02:02:18.551Z,3.10
2022-09-30T02:03:46.179Z,3.00
2022-09-30T02:04:53.832Z,2.67
2022-09-30T02:06:18.440Z,2.40
2022-09-30T02:07:31.790Z,2.60
2022-09-30T02:08:52.533Z,2.47
2022-09-30T02:10:01.431Z,2.73
2022-09-30T02:11:08.033Z,2.80
2022-09-30T02:12:14.105Z,2.90
2022-09-30T02:13:24.130Z,2.83
2022-09-30T02:14:44.489Z,2.63
2022-09-30T02:15:57.963Z,2.47
2022-09-30T02:17:08.427Z,2.83
2022-09-30T02:18:22.473Z,2.60
2022-09-30T02:19:40.450Z,3.00
2022-09-30T02:20:44.838Z,2.70
2022-09-30T02:21:55.837Z,3.30
2022-09-30T02:23:12.085Z,2.93
2022-09-30T02:24:16.310Z,2.70
2022-09-30T02:25:27.203Z,2.60
2022-09-30T02:26:31.431Z,2.83
2022-09-30T02:27:42.209Z,2.90
2022-09-30T02:28:49.526Z,2.60
2022-09-30T02:29:56.830Z,2.67
2022-09-30T02:31:01.510Z,2.53
2022-09-30T02:32:09.942Z,2.40
2022-09-30T02:33:17.525Z,2.70
2022-09-30T02:34:40.396Z,2.67
2022-09-30T02:35:48.846Z,2.90
2022-09-30T02:37:01.250Z,2.80
2022-09-30T02:38:09.477Z,2.87
2022-09-30T02:39:15.977Z,2.73
2022-09-30T02:40:41.228Z,3.07
2022-09-30T02:41:52.092Z,2.70
2022-09-30T02:42:53.863Z,2.77
2022-09-30T02:43:56.725Z,2.73
2022-09-30T02:45:08.786Z,2.73
2022-09-30T02:46:47.088Z,2.90
2022-09-30T02:48:10.543Z,2.73
2022-09-30T02:49:30.323Z,2.77
2022-09-30T02:50:56.753Z,2.73
2022-09-30T02:52:31.029Z,2.80
2022-09-30T02:53:55.354Z,2.83
2022-09-30T02:55:19.649Z,2.90
2022-09-30T02:56:27.139Z,2.83
2022-09-30T02:57:49.765Z,2.80
2022-09-30T02:58:54.041Z,2.90
2022-09-30T02:59:55.876Z,2.93
2022-09-30T03:00:57.988Z,2.70
2022-09-30T03:01:59.465Z,2.80
2022-09-30T03:03:07.559Z,2.90
2022-09-30T03:04:12.896Z,2.83
2022-09-30T03:05:14.348Z,3.00
2022-09-30T03:06:16.268Z,2.60
2022-09-30T03:07:18.567Z,3.10
2022-09-30T03:08:20.482Z,2.80
2022-09-30T03:09:26.276Z,2.67
2022-09-30T03:10:30.147Z,2.90
2022-09-30T03:11:32.351Z,3.13
2022-09-30T03:12:45.997Z,2.60
2022-09-30T03:14:01.916Z,2.87
2022-09-30T03:15:27.238Z,2.87
2022-09-30T03:17:10.034Z,2.80
2022-09-30T03:18:11.465Z,3.20
2022-09-30T03:19:15.937Z,3.20
2022-09-30T03:20:48.602Z,2.83
2022-09-30T03:22:19.153Z,2.73
2022-09-30T03:23:52.735Z,2.73
2022-09-30T03:25:05.839Z,2.93
2022-09-30T03:26:43.285Z,2.97
2022-09-30T03:28:02.761Z,3.00
2022-09-30T03:29:13.231Z,2.80
2022-09-30T03:30:24.097Z,2.83
2022-09-30T03:31:34.676Z,2.90
2022-09-30T03:32:48.623Z,2.97
2022-09-30T03:34:15.538Z,2.80
2022-09-30T03:35:42.201Z,2.80
2022-09-30T03:36:51.158Z,2.90
2022-09-30T03:38:05.099Z,2.50
2022-09-30T03:39:29.795Z,2.93
2022-09-30T03:40:49.824Z,2.77
2022-09-30T03:42:09.075Z,2.67
2022-09-30T03:43:34.831Z,3.10
2022-09-30T03:44:48.687Z,3.17
2022-09-30T03:46:23.464Z,3.17
2022-09-30T03:47:27.866Z,3.03
2022-09-30T03:48:31.445Z,2.90
2022-09-30T03:49:56.320Z,3.03
2022-09-30T03:51:00.299Z,2.80
2022-09-30T03:52:10.983Z,2.93
2022-09-30T03:53:13.600Z,2.90
2022-09-30T03:54:15.166Z,2.80
2022-09-30T03:55:19.530Z,2.80
2022-09-30T03:56:31.756Z,2.97
2022-09-30T03:57:33.258Z,2.70
2022-09-30T03:58:37.455Z,2.57
2022-09-30T03:59:38.929Z,3.23
2022-09-30T04:00:54.508Z,3.20
2022-09-30T04:01:59.355Z,3.13
2022-09-30T04:03:01.054Z,2.77
2022-09-30T04:04:02.422Z,3.00
2022-09-30T04:05:05.465Z,2.83
2022-09-30T04:06:11.941Z,2.80
2022-09-30T04:07:13.689Z,2.80
2022-09-30T04:08:15.507Z,2.50
2022-09-30T04:09:17.044Z,2.83
2022-09-30T04:10:18.440Z,2.90
2022-09-30T04:11:20.664Z,2.90
2022-09-30T04:12:22.111Z,2.90
2022-09-30T04:13:23.480Z,3.00
2022-09-30T04:14:24.867Z,3.13
2022-09-30T04:15:27.233Z,2.60
2022-09-30T04:16:32.546Z,3.03
2022-09-30T04:17:34.012Z,3.40
2022-09-30T04:18:38.227Z,3.20
2022-09-30T04:19:40.332Z,3.10
2022-09-30T04:20:42.111Z,3.10
2022-09-30T04:21:43.484Z,3.20
2022-09-30T04:22:44.898Z,3.20
2022-09-30T04:23:46.363Z,3.20
2022-09-30T04:24:47.778Z,3.40
2022-09-30T04:25:53.543Z,3.20
2022-09-30T04:26:54.934Z,3.10
2022-09-30T04:27:57.001Z,3.60
2022-09-30T04:28:58.783Z,3.57
2022-09-30T04:30:00.164Z,3.27
2022-09-30T04:31:03.142Z,3.53
2022-09-30T04:32:04.619Z,3.03
2022-09-30T04:33:06.007Z,3.50
2022-09-30T04:34:08.067Z,3.40
2022-09-30T04:35:09.467Z,3.00
2022-09-30T04:36:11.204Z,3.07
2022-09-30T04:37:13.803Z,3.30
2022-09-30T04:38:15.318Z,3.30
2022-09-30T04:39:16.707Z,3.37
2022-09-30T04:40:18.374Z,2.97
2022-09-30T04:41:20.509Z,3.33
2022-09-30T04:42:21.921Z,2.80
2022-09-30T04:43:24.521Z,2.80
2022-09-30T04:44:25.962Z,3.50
2022-09-30T04:45:27.492Z,2.93
2022-09-30T04:46:28.902Z,2.83
2022-09-30T04:47:31.166Z,2.90
2022-09-30T04:48:32.511Z,3.13
2022-09-30T04:49:34.034Z,3.17
2022-09-30T04:50:35.475Z,3.30
2022-09-30T04:51:38.453Z,3.40
2022-09-30T04:52:43.713Z,3.00
2022-09-30T04:53:46.597Z,2.93
2022-09-30T04:54:48.009Z,3.07
2022-09-30T04:55:49.906Z,3.03
2022-09-30T04:56:51.830Z,3.23
2022-09-30T04:57:53.242Z,3.17
2022-09-30T04:58:54.764Z,3.17
2022-09-30T04:59:56.244Z,3.03
2022-09-30T05:01:09.582Z,2.97
2022-09-30T05:02:12.774Z,3.00
2022-09-30T05:03:15.350Z,3.47
2022-09-30T05:04:16.772Z,3.30
2022-09-30T05:05:18.480Z,3.03
2022-09-30T05:06:21.170Z,3.00
2022-09-30T05:07:22.612Z,3.57
2022-09-30T05:08:24.055Z,3.00
2022-09-30T05:09:25.628Z,3.23
2022-09-30T05:10:27.429Z,3.23
2022-09-30T05:11:29.602Z,3.40
2022-09-30T05:12:32.055Z,3.27
2022-09-30T05:13:35.104Z,3.10
2022-09-30T05:14:36.572Z,3.13
2022-09-30T05:15:37.960Z,3.07
2022-09-30T05:16:39.386Z,3.33
2022-09-30T05:17:40.902Z,3.20
2022-09-30T05:18:45.820Z,3.13
2022-09-30T05:19:47.747Z,2.90
2022-09-30T05:20:51.072Z,3.20
2022-09-30T05:21:52.521Z,3.13
2022-09-30T05:22:55.290Z,3.23
2022-09-30T05:23:56.946Z,3.30
2022-09-30T05:24:58.397Z,3.20
2022-09-30T05:26:01.246Z,2.90
2022-09-30T05:27:02.976Z,3.33
2022-09-30T05:28:04.438Z,3.23
2022-09-30T05:29:07.170Z,3.10
2022-09-30T05:30:09.240Z,3.10
2022-09-30T05:31:12.314Z,3.23
2022-09-30T05:32:13.879Z,3.37
2022-09-30T05:33:15.445Z,3.00
2022-09-30T05:34:16.892Z,3.20
2022-09-30T05:35:18.354Z,3.00
2022-09-30T05:36:19.861Z,3.30
2022-09-30T05:37:21.528Z,3.17
2022-09-30T05:38:23.183Z,2.87
2022-09-30T05:39:24.874Z,3.00
2022-09-30T05:40:26.741Z,3.20
2022-09-30T05:41:28.089Z,2.93
2022-09-30T05:42:32.507Z,3.07
2022-09-30T05:43:33.986Z,3.80
2022-09-30T05:44:35.348Z,2.87
2022-09-30T05:45:38.412Z,2.83
2022-09-30T05:46:39.857Z,2.93
2022-09-30T05:47:41.309Z,2.80
2022-09-30T05:48:42.877Z,2.90
2022-09-30T05:49:45.593Z,2.70
2022-09-30T05:50:51.813Z,2.67
2022-09-30T05:51:53.384Z,2.70
2022-09-30T05:52:54.736Z,2.80
2022-09-30T05:53:56.156Z,2.63
2022-09-30T05:55:00.953Z,3.00
2022-09-30T05:56:02.546Z,2.77
2022-09-30T05:57:04.538Z,2.60
2022-09-30T05:58:06.192Z,2.57
2022-09-30T05:59:07.609Z,2.87
2022-09-30T06:00:09.995Z,2.63
2022-09-30T06:01:15.549Z,2.50
2022-09-30T06:02:17.014Z,2.20
2022-09-30T06:03:19.105Z,2.30
2022-09-30T06:04:21.556Z,2.40
2022-09-30T06:05:23.019Z,2.50
2022-09-30T06:06:24.562Z,2.43
2022-09-30T06:07:25.942Z,2.70
2022-09-30T06:08:27.797Z,2.83
2022-09-30T06:09:29.234Z,2.90
2022-09-30T06:10:31.135Z,2.83
2022-09-30T06:11:32.803Z,2.90
2022-09-30T06:12:36.214Z,3.00
2022-09-30T06:13:38.493Z,3.10
2022-09-30T06:14:39.863Z,3.30
2022-09-30T06:15:41.544Z,2.83
2022-09-30T06:16:43.092Z,3.20
2022-09-30T06:17:44.612Z,3.00
2022-09-30T06:18:46.493Z,3.07
2022-09-30T06:19:49.596Z,2.83
2022-09-30T06:20:51.034Z,3.13
2022-09-30T06:21:52.448Z,2.80
2022-09-30T06:22:54.574Z,2.97
2022-09-30T06:23:56.201Z,2.83
2022-09-30T06:24:57.624Z,3.00
2022-09-30T06:25:59.044Z,2.80
2022-09-30T06:27:00.580Z,2.90
2022-09-30T06:28:02.609Z,2.90
2022-09-30T06:29:04.399Z,2.77
2022-09-30T06:30:07.246Z,3.00
2022-09-30T06:31:09.403Z,2.70
2022-09-30T06:32:11.077Z,3.10
2022-09-30T06:33:13.521Z,2.93
2022-09-30T06:34:15.087Z,3.33
2022-09-30T06:35:16.901Z,2.70
2022-09-30T06:36:18.424Z,2.83
2022-09-30T06:37:19.885Z,2.70
2022-09-30T06:38:23.104Z,3.10
2022-09-30T06:39:24.682Z,2.93
2022-09-30T06:40:26.472Z,2.67
2022-09-30T06:41:28.877Z,2.60
2022-09-30T06:42:30.654Z,2.70
2022-09-30T06:43:45.953Z,2.80
2022-09-30T06:44:53.270Z,2.50
2022-09-30T06:46:08.639Z,2.70
2022-09-30T06:47:23.414Z,2.47
2022-09-30T06:48:37.369Z,2.70
2022-09-30T06:49:48.932Z,2.80
2022-09-30T06:51:01.589Z,2.77
2022-09-30T06:52:04.027Z,2.50
2022-09-30T06:53:07.771Z,2.50
2022-09-30T06:54:09.578Z,2.40
2022-09-30T06:55:10.941Z,2.50
2022-09-30T06:56:12.799Z,2.43
2022-09-30T06:57:14.172Z,2.90
2022-09-30T06:58:16.696Z,2.90
2022-09-30T06:59:18.231Z,2.53
2022-09-30T07:00:19.878Z,2.63
2022-09-30T07:01:21.680Z,2.63
2022-09-30T07:02:23.242Z,2.70
2022-09-30T07:03:29.264Z,2.70
2022-09-30T07:04:30.983Z,2.80
2022-09-30T07:05:32.539Z,2.73
2022-09-30T07:06:33.974Z,2.63
2022-09-30T07:07:36.663Z,2.57
2022-09-30T07:08:38.903Z,2.33
2022-09-30T07:09:40.444Z,2.43
2022-09-30T07:10:42.260Z,2.60
2022-09-30T07:11:44.133Z,2.40
2022-09-30T07:12:53.039Z,2.67
2022-09-30T07:13:55.420Z,2.57
2022-09-30T07:14:57.129Z,2.30
2022-09-30T07:15:58.746Z,2.37
2022-09-30T07:17:04.090Z,2.37
2022-09-30T07:18:05.661Z,2.40
2022-09-30T07:19:08.995Z,2.60
2022-09-30T07:20:10.421Z,2.10
2022-09-30T07:21:15.858Z,2.23
2022-09-30T07:22:30.147Z,2.00
2022-09-30T07:23:32.052Z,2.00
2022-09-30T07:24:35.140Z,2.33
2022-09-30T07:25:36.624Z,2.47
2022-09-30T07:26:39.541Z,2.13
2022-09-30T07:27:41.321Z,2.30
2022-09-30T07:28:43.677Z,2.10
2022-09-30T07:30:07.599Z,2.40
2022-09-30T07:31:32.071Z,2.10
2022-09-30T07:32:33.451Z,2.50
2022-09-30T07:33:35.562Z,2.37
2022-09-30T07:34:37.527Z,2.77
2022-09-30T07:35:39.052Z,2.17
2022-09-30T07:36:42.075Z,2.40
2022-09-30T07:37:44.197Z,2.30
2022-09-30T07:38:51.830Z,2.40
2022-09-30T07:39:53.931Z,2.77
2022-09-30T07:41:01.409Z,2.70
2022-09-30T07:42:03.979Z,2.17
2022-09-30T07:43:05.704Z,2.63
2022-09-30T07:44:13.277Z,2.30
2022-09-30T07:45:19.353Z,2.80
2022-09-30T07:46:26.786Z,3.30
2022-09-30T07:47:28.395Z,2.60
2022-09-30T07:48:50.521Z,2.53
2022-09-30T07:49:52.765Z,2.80
2022-09-30T07:50:54.730Z,2.70
2022-09-30T07:51:58.523Z,2.67
2022-09-30T07:52:59.908Z,2.70
2022-09-30T07:54:08.588Z,2.40
2022-09-30T07:55:09.987Z,2.60
2022-09-30T07:56:11.767Z,2.60
2022-09-30T07:57:13.399Z,2.60
2022-09-30T07:58:14.793Z,2.87
2022-09-30T07:59:16.926Z,2.80
2022-09-30T08:00:40.982Z,2.53
2022-09-30T08:01:40.656Z,2.53
2022-09-30T08:02:42.156Z,2.47
2022-09-30T08:03:46.822Z,2.50
2022-09-30T08:04:48.574Z,2.47
2022-09-30T08:05:49.991Z,2.50
2022-09-30T08:06:59.119Z,2.80
2022-09-30T08:08:00.651Z,2.63
2022-09-30T08:09:02.587Z,2.23
2022-09-30T08:10:04.724Z,2.40
2022-09-30T08:11:07.252Z,2.80
2022-09-30T08:12:09.628Z,2.50
2022-09-30T08:13:13.810Z,2.70
2022-09-30T08:14:22.135Z,2.57
2022-09-30T08:15:23.911Z,2.40
2022-09-30T08:16:26.296Z,2.67
2022-09-30T08:17:27.750Z,2.80
2022-09-30T08:18:29.582Z,2.57
2022-09-30T08:19:33.645Z,2.70
2022-09-30T08:20:35.391Z,2.60
2022-09-30T08:21:36.806Z,2.50
2022-09-30T08:22:38.302Z,2.57
2022-09-30T08:23:40.068Z,2.50
2022-09-30T08:24:41.540Z,2.67
2022-09-30T08:25:43.161Z,2.63
2022-09-30T08:26:44.665Z,2.43
2022-09-30T08:27:46.351Z,2.43
2022-09-30T08:28:48.266Z,2.40
2022-09-30T08:29:55.269Z,2.30
2022-09-30T08:31:08.205Z,2.57
2022-09-30T08:32:10.220Z,2.53
2022-09-30T08:33:12.046Z,2.47
2022-09-30T08:34:13.670Z,2.50
2022-09-30T08:35:15.373Z,2.50
2022-09-30T08:36:22.664Z,2.60
2022-09-30T08:37:24.277Z,2.63
2022-09-30T08:38:25.653Z,2.70
2022-09-30T08:39:27.272Z,2.83
2022-09-30T08:40:32.344Z,2.80
2022-09-30T08:41:39.530Z,2.67
2022-09-30T08:43:00.011Z,3.03
2022-09-30T08:44:07.293Z,2.80
2022-09-30T08:45:21.829Z,2.97
2022-09-30T08:46:35.107Z,2.90
2022-09-30T08:48:18.023Z,2.80
2022-09-30T08:49:57.896Z,3.07
2022-09-30T08:51:17.333Z,2.60
2022-09-30T08:52:47.906Z,2.60
2022-09-30T08:53:51.682Z,2.70
2022-09-30T08:54:55.690Z,2.93
2022-09-30T08:56:02.488Z,2.73
2022-09-30T08:57:05.846Z,3.03
2022-09-30T08:58:17.677Z,3.00
2022-09-30T08:59:28.400Z,2.93
2022-09-30T09:00:30.274Z,2.70
2022-09-30T09:01:38.237Z,2.63
2022-09-30T09:02:55.805Z,2.97
2022-09-30T09:03:58.464Z,2.80
2022-09-30T09:05:04.147Z,2.47
2022-09-30T09:06:20.939Z,3.10
2022-09-30T09:07:30.867Z,2.93
2022-09-30T09:08:35.586Z,2.80
2022-09-30T09:10:18.871Z,2.90
2022-09-30T09:11:49.184Z,2.90
2022-09-30T09:13:09.006Z,2.80
2022-09-30T09:14:42.938Z,2.67
2022-09-30T09:16:05.950Z,2.70
2022-09-30T09:17:16.411Z,2.40
2022-09-30T09:18:41.705Z,2.67
2022-09-30T09:20:09.270Z,2.10
2022-09-30T09:21:37.670Z,2.47
2022-09-30T09:22:39.421Z,2.37
2022-09-30T09:23:41.323Z,2.27
2022-09-30T09:24:45.217Z,2.63
2022-09-30T09:25:49.508Z,2.47
2022-09-30T09:26:54.192Z,2.70
2022-09-30T09:28:01.272Z,2.40
2022-09-30T09:29:08.705Z,2.60
2022-09-30T09:30:19.972Z,2.40
2022-09-30T09:31:21.926Z,2.40
2022-09-30T09:32:26.681Z,2.77
2022-09-30T09:33:30.642Z,2.73
2022-09-30T09:34:35.841Z,2.80
2022-09-30T09:36:00.295Z,2.70
2022-09-30T09:37:52.816Z,2.40
2022-09-30T09:39:28.295Z,2.60
2022-09-30T09:40:57.583Z,2.43
2022-09-30T09:42:05.697Z,2.23
2022-09-30T09:43:19.144Z,2.50
2022-09-30T09:44:39.065Z,2.40
2022-09-30T09:45:58.376Z,2.30
2022-09-30T09:47:05.066Z,2.27
2022-09-30T09:48:12.777Z,2.23
2022-09-30T09:49:15.996Z,2.53
2022-09-30T09:50:45.559Z,2.30
2022-09-30T09:52:07.165Z,2.30
2022-09-30T09:53:30.154Z,2.50
2022-09-30T09:54:37.639Z,2.40
2022-09-30T09:55:39.332Z,2.40
2022-09-30T09:56:40.797Z,2.30
2022-09-30T09:57:42.278Z,2.60
2022-09-30T09:59:12.480Z,2.80
2022-09-30T10:00:45.263Z,2.50
2022-09-30T10:01:50.265Z,2.40
2022-09-30T10:03:02.151Z,2.40
2022-09-30T10:04:15.781Z,2.30
2022-09-30T10:05:26.350Z,2.43
2022-09-30T10:06:44.184Z,2.33
2022-09-30T10:07:45.676Z,1.90
2022-09-30T10:08:55.554Z,2.30
2022-09-30T10:10:23.434Z,2.03
2022-09-30T10:11:27.378Z,2.23
2022-09-30T10:12:29.780Z,2.53
2022-09-30T10:13:45.575Z,2.20
2022-09-30T10:15:03.496Z,2.60
2022-09-30T10:16:05.830Z,2.40
2022-09-30T10:17:22.419Z,2.50
2022-09-30T10:18:30.013Z,2.10
2022-09-30T10:19:34.407Z,2.30
2022-09-30T10:20:37.520Z,2.50
2022-09-30T10:21:39.055Z,2.20
2022-09-30T10:22:41.010Z,2.13
2022-09-30T10:23:42.445Z,2.50
2022-09-30T10:24:44.596Z,2.63
2022-09-30T10:26:00.564Z,2.30
2022-09-30T10:27:02.277Z,2.60
2022-09-30T10:28:22.679Z,2.03
2022-09-30T10:29:29.755Z,2.13
2022-09-30T10:30:35.736Z,2.30
2022-09-30T10:31:44.567Z,2.20
2022-09-30T10:32:46.073Z,2.10
2022-09-30T10:33:53.674Z,2.30
2022-09-30T10:35:12.078Z,2.23
2022-09-30T10:36:18.837Z,2.50
2022-09-30T10:37:24.058Z,2.50
2022-09-30T10:38:29.273Z,2.20
2022-09-30T10:39:36.156Z,2.27
2022-09-30T10:40:37.594Z,2.00
2022-09-30T10:41:39.195Z,2.30
2022-09-30T10:42:41.868Z,2.30
2022-09-30T10:43:45.155Z,2.43
2022-09-30T10:44:49.364Z,2.23
2022-09-30T10:46:13.517Z,2.50
2022-09-30T10:47:22.529Z,2.40
2022-09-30T10:48:26.459Z,2.10
2022-09-30T10:49:39.914Z,2.20
2022-09-30T10:50:49.284Z,2.00
2022-09-30T10:51:51.093Z,2.33
2022-09-30T10:53:17.460Z,2.23
2022-09-30T10:54:39.973Z,2.23
2022-09-30T10:55:45.791Z,1.90
2022-09-30T10:56:53.298Z,1.90
2022-09-30T10:57:57.516Z,1.90
2022-09-30T10:59:01.278Z,1.90
2022-09-30T11:00:09.114Z,2.20
2022-09-30T11:01:44.052Z,2.00
2022-09-30T11:03:06.983Z,1.93
2022-09-30T11:04:14.062Z,2.13
2022-09-30T11:05:24.430Z,2.00
2022-09-30T11:06:29.585Z,2.10
2022-09-30T11:07:43.072Z,1.80
2022-09-30T11:08:57.664Z,2.33
2022-09-30T11:10:53.662Z,2.27
2022-09-30T11:12:04.246Z,2.10
2022-09-30T11:13:31.776Z,2.43
2022-09-30T11:14:44.080Z,2.40
2022-09-30T11:16:14.949Z,2.40
2022-09-30T11:17:22.775Z,2.50
2022-09-30T11:18:36.298Z,2.30
2022-09-30T11:19:55.930Z,2.27
2022-09-30T11:21:14.987Z,1.93
2022-09-30T11:22:16.425Z,2.23
2022-09-30T11:23:38.183Z,2.07
2022-09-30T11:24:45.232Z,2.17
2022-09-30T11:25:54.324Z,2.30
2022-09-30T11:27:01.958Z,2.27
2022-09-30T11:28:25.146Z,2.10
2022-09-30T11:29:58.049Z,2.40
2022-09-30T11:31:31.029Z,2.27
2022-09-30T11:32:38.552Z,2.03
2022-09-30T11:34:01.742Z,2.33
2022-09-30T11:35:26.243Z,2.10
2022-09-30T11:36:38.878Z,2.40
2022-09-30T11:38:21.907Z,2.30
2022-09-30T11:39:51.212Z,2.80
2022-09-30T11:41:05.055Z,2.33
2022-09-30T11:42:18.553Z,2.43
2022-09-30T11:43:28.614Z,2.43
2022-09-30T11:44:36.082Z,2.30
2022-09-30T11:46:00.777Z,2.33
2022-09-30T11:47:23.570Z,2.57
2022-09-30T11:49:14.668Z,1.97
2022-09-30T11:50:38.304Z,2.57
2022-09-30T11:51:58.284Z,2.30
2022-09-30T11:53:24.488Z,2.30
2022-09-30T11:54:29.047Z,2.03
2022-09-30T11:56:02.357Z,2.00
2022-09-30T11:57:11.654Z,2.33
2022-09-30T11:58:40.551Z,2.30
2022-09-30T12:00:01.197Z,2.20
2022-09-30T12:01:16.242Z,2.10
2022-09-30T12:02:32.453Z,1.90
2022-09-30T12:03:43.821Z,2.30
2022-09-30T12:04:47.222Z,2.03
2022-09-30T12:05:55.025Z,1.93
2022-09-30T12:07:05.280Z,2.30
2022-09-30T12:08:43.214Z,2.07
2022-09-30T12:09:57.649Z,1.90
2022-09-30T12:11:13.698Z,1.80
2022-09-30T12:12:19.099Z,1.80
2022-09-30T12:13:27.487Z,1.73
2022-09-30T12:14:42.237Z,1.70
2022-09-30T12:15:47.214Z,2.10
2022-09-30T12:16:51.299Z,2.00
2022-09-30T12:17:55.999Z,2.10
2022-09-30T12:19:19.582Z,1.83
2022-09-30T12:20:34.423Z,1.90
2022-09-30T12:21:53.238Z,2.00
2022-09-30T12:23:01.525Z,2.20
2022-09-30T12:24:11.401Z,2.17
2022-09-30T12:25:31.279Z,2.27
2022-09-30T12:26:33.789Z,1.90
2022-09-30T12:27:46.989Z,2.20
2022-09-30T12:29:39.120Z,2.00
2022-09-30T12:30:41.115Z,1.80
2022-09-30T12:32:03.925Z,2.10
2022-09-30T12:33:41.398Z,2.20
2022-09-30T12:35:23.785Z,2.30
2022-09-30T12:36:53.437Z,1.90
2022-09-30T12:38:32.452Z,2.17
2022-09-30T12:39:56.282Z,2.13
2022-09-30T12:41:11.850Z,2.40
2022-09-30T12:42:24.970Z,2.20
2022-09-30T12:43:57.773Z,2.40
2022-09-30T12:45:16.902Z,2.40
2022-09-30T12:46:46.513Z,2.07
2022-09-30T12:47:51.705Z,2.37
2022-09-30T12:49:01.475Z,2.37
2022-09-30T12:50:07.828Z,2.40
2022-09-30T12:51:11.127Z,2.13
2022-09-30T12:52:19.275Z,2.70
2022-09-30T12:53:31.063Z,2.00
2022-09-30T12:54:36.335Z,2.80
2022-09-30T12:55:42.009Z,2.50
2022-09-30T12:56:46.146Z,2.27
2022-09-30T12:57:49.456Z,2.40
2022-09-30T12:58:52.286Z,2.47
2022-09-30T12:59:58.053Z,2.40
2022-09-30T13:01:07.092Z,2.20
2022-09-30T13:02:25.874Z,2.40
2022-09-30T13:03:27.577Z,2.40
2022-09-30T13:04:39.145Z,2.50
2022-09-30T13:05:40.553Z,2.33
2022-09-30T13:06:47.760Z,2.40
2022-09-30T13:08:04.959Z,2.30
2022-09-30T13:09:18.087Z,2.30
2022-09-30T13:10:30.461Z,2.27
2022-09-30T13:11:36.320Z,2.80
2022-09-30T13:12:46.673Z,2.50
2022-09-30T13:14:03.985Z,2.33
2022-09-30T13:15:40.332Z,2.50
2022-09-30T13:17:09.088Z,2.40
2022-09-30T13:18:23.946Z,2.50
2022-09-30T13:19:36.530Z,2.53
2022-09-30T13:21:06.746Z,2.33
2022-09-30T13:22:29.601Z,2.60
2022-09-30T13:23:44.066Z,2.50
2022-09-30T13:25:00.643Z,2.33
2022-09-30T13:26:03.018Z,2.63
2022-09-30T13:27:13.426Z,2.37
2022-09-30T13:28:15.189Z,2.20
2022-09-30T13:29:16.712Z,2.30
2022-09-30T13:30:18.142Z,2.40
2022-09-30T13:31:24.388Z,2.50
2022-09-30T13:32:34.683Z,2.63
2022-09-30T13:33:45.927Z,2.30
2022-09-30T13:34:56.095Z,2.20
2022-09-30T13:35:59.102Z,2.47
2022-09-30T13:37:05.218Z,2.50
2022-09-30T13:38:12.926Z,2.30
2022-09-30T13:39:20.109Z,2.27
2022-09-30T13:40:43.661Z,2.47
2022-09-30T13:42:20.503Z,2.50
2022-09-30T13:43:40.384Z,2.57
2022-09-30T13:45:05.637Z,2.30
2022-09-30T13:46:27.042Z,2.70
2022-09-30T13:47:34.770Z,2.10
2022-09-30T13:48:41.152Z,2.00
2022-09-30T13:49:57.619Z,2.23
2022-09-30T13:51:02.078Z,2.40
2022-09-30T13:52:11.385Z,2.47
2022-09-30T13:53:21.775Z,2.23
2022-09-30T13:54:28.885Z,2.50
2022-09-30T13:55:41.190Z,2.47
2022-09-30T13:56:43.821Z,2.30
2022-09-30T13:57:50.812Z,2.60
2022-09-30T13:59:31.460Z,2.20
2022-09-30T14:01:13.611Z,2.20
2022-09-30T14:02:24.649Z,2.27
2022-09-30T14:03:46.716Z,2.10
2022-09-30T14:05:15.380Z,2.50
2022-09-30T14:06:36.813Z,2.37
2022-09-30T14:07:51.482Z,2.17
2022-09-30T14:09:11.926Z,2.20
2022-09-30T14:10:28.982Z,2.30
2022-09-30T14:11:33.415Z,2.03
2022-09-30T14:12:46.722Z,2.20
2022-09-30T14:14:25.586Z,2.50
2022-09-30T14:15:38.752Z,2.10
2022-09-30T14:16:48.925Z,2.20
2022-09-30T14:18:05.451Z,2.20
2022-09-30T14:19:58.309Z,2.30
2022-09-30T14:21:14.524Z,2.63
2022-09-30T14:22:16.334Z,2.70
2022-09-30T14:23:20.180Z,2.80
2022-09-30T14:24:37.324Z,2.60
2022-09-30T14:26:03.039Z,2.40
2022-09-30T14:27:43.187Z,2.50
2022-09-30T14:28:59.063Z,2.27
2022-09-30T14:30:17.522Z,2.40
2022-09-30T14:31:19.595Z,2.30
2022-09-30T14:32:29.056Z,2.40
2022-09-30T14:33:31.675Z,2.30
2022-09-30T14:34:33.935Z,2.40
2022-09-30T14:35:37.479Z,2.70
2022-09-30T14:36:40.045Z,2.73
2022-09-30T14:38:07.286Z,2.27
2022-09-30T14:39:18.539Z,2.47
2022-09-30T14:40:42.500Z,2.60
2022-09-30T14:41:51.752Z,2.77
2022-09-30T14:42:55.315Z,2.67
2022-09-30T14:44:05.696Z,2.60
2022-09-30T14:45:09.412Z,2.57
2022-09-30T14:46:16.874Z,2.50
2022-09-30T14:47:19.387Z,2.87
2022-09-30T14:48:28.216Z,2.50
2022-09-30T14:49:35.991Z,2.27
2022-09-30T14:50:44.130Z,2.60
2022-09-30T14:51:48.677Z,2.70
2022-09-30T14:52:53.486Z,2.40
2022-09-30T14:54:02.699Z,2.60
2022-09-30T14:55:05.062Z,2.50
2022-09-30T14:56:22.052Z,2.57
2022-09-30T14:57:24.767Z,2.50
2022-09-30T14:58:30.451Z,2.20
2022-09-30T14:59:34.336Z,2.40
2022-09-30T15:00:37.277Z,2.47
2022-09-30T15:01:40.630Z,2.47
2022-09-30T15:02:46.846Z,2.60
2022-09-30T15:04:14.531Z,2.33
2022-09-30T15:05:17.763Z,2.37
2022-09-30T15:06:23.700Z,2.53
2022-09-30T15:07:25.339Z,2.20
2022-09-30T15:08:27.064Z,2.43
2022-09-30T15:09:43.835Z,2.50
2022-09-30T15:10:54.495Z,2.33
2022-09-30T15:11:56.629Z,2.27
2022-09-30T15:12:58.040Z,2.50
2022-09-30T15:14:05.351Z,2.33
2022-09-30T15:15:23.057Z,2.27
2022-09-30T15:16:26.340Z,2.50
2022-09-30T15:17:30.170Z,2.30
2022-09-30T15:18:46.575Z,2.27
2022-09-30T15:19:50.191Z,2.37
2022-09-30T15:20:55.126Z,2.20
2022-09-30T15:22:01.939Z,2.03
2022-09-30T15:23:09.649Z,2.30
2022-09-30T15:24:12.313Z,2.33
2022-09-30T15:25:14.256Z,2.20